sensor_id;sensor_type;location;lat;lon;timestamp;pressure;altitude;pressure_sealevel;temperature;humidity
50430;BME280;36359;41.556;-8.418;2022-12-16T00:00:27;98666.47;;;12.42;100.00
50430;BME280;36359;41.556;-8.418;2022-12-16T00:02:53;98679.16;;;12.28;100.00
50430;BME280;36359;41.556;-8.418;2022-12-16T00:05:19;98672.03;;;12.27;100.00
50430;BME280;36359;41.556;-8.418;2022-12-16T00:07:47;98681.22;;;12.26;100.00
50430;BME280;36359;41.556;-8.418;2022-12-16T00:10:13;98669.94;;;12.29;100.00
50430;BME280;36359;41.556;-8.418;2022-12-16T00:12:39;98675.16;;;12.24;100.00
50430;BME280;36359;41.556;-8.418;2022-12-16T00:15:05;98682.50;;;12.30;100.00
50430;BME280;36359;41.556;-8.418;2022-12-16T00:17:31;98683.31;;;12.24;100.00
50430;BME280;36359;41.556;-8.418;2022-12-16T00:19:57;98679.41;;;12.40;100.00
50430;BME280;36359;41.556;-8.418;2022-12-16T00:22:23;98682.56;;;12.43;100.00
50430;BME280;36359;41.556;-8.418;2022-12-16T00:24:48;98681.72;;;12.36;100.00
50430;BME280;36359;41.556;-8.418;2022-12-16T00:27:14;98677.78;;;12.45;100.00
50430;BME280;36359;41.556;-8.418;2022-12-16T00:29:40;98671.22;;;12.33;100.00
50430;BME280;36359;41.556;-8.418;2022-12-16T00:32:06;98665.31;;;12.23;100.00
50430;BME280;36359;41.556;-8.418;2022-12-16T00:34:31;98666.53;;;12.20;100.00
50430;BME280;36359;41.556;-8.418;2022-12-16T00:36:58;98675.38;;;12.29;100.00
50430;BME280;36359;41.556;-8.418;2022-12-16T00:39:23;98672.66;;;12.29;100.00
50430;BME280;36359;41.556;-8.418;2022-12-16T00:41:49;98673.88;;;12.20;100.00
50430;BME280;36359;41.556;-8.418;2022-12-16T00:44:16;98661.50;;;12.17;100.00
50430;BME280;36359;41.556;-8.418;2022-12-16T00:46:42;98664.63;;;12.14;100.00
50430;BME280;36359;41.556;-8.418;2022-12-16T00:49:08;98661.19;;;12.34;100.00
50430;BME280;36359;41.556;-8.418;2022-12-16T00:51:34;98664.06;;;12.25;100.00
50430;BME280;36359;41.556;-8.418;2022-12-16T00:54:00;98658.25;;;12.35;100.00
50430;BME280;36359;41.556;-8.418;2022-12-16T00:56:26;98661.63;;;12.44;100.00
50430;BME280;36359;41.556;-8.418;2022-12-16T00:58:52;98664.97;;;12.33;100.00
50430;BME280;36359;41.556;-8.418;2022-12-16T01:01:17;98655.66;;;12.20;100.00
50430;BME280;36359;41.556;-8.418;2022-12-16T01:03:43;98659.00;;;12.16;100.00
50430;BME280;36359;41.556;-8.418;2022-12-16T01:06:11;98657.88;;;12.38;100.00
50430;BME280;36359;41.556;-8.418;2022-12-16T01:08:38;98654.97;;;12.46;100.00
50430;BME280;36359;41.556;-8.418;2022-12-16T01:11:04;98647.03;;;12.52;100.00
50430;BME280;36359;41.556;-8.418;2022-12-16T01:13:30;98650.06;;;12.28;100.00
50430;BME280;36359;41.556;-8.418;2022-12-16T01:15:59;98646.13;;;12.38;100.00
50430;BME280;36359;41.556;-8.418;2022-12-16T01:18:25;98630.31;;;12.07;100.00
50430;BME280;36359;41.556;-8.418;2022-12-16T01:20:51;98643.50;;;12.10;100.00
50430;BME280;36359;41.556;-8.418;2022-12-16T01:23:17;98654.13;;;12.04;100.00
50430;BME280;36359;41.556;-8.418;2022-12-16T01:25:42;98653.41;;;11.89;100.00
50430;BME280;36359;41.556;-8.418;2022-12-16T01:28:08;98656.66;;;11.78;100.00
50430;BME280;36359;41.556;-8.418;2022-12-16T01:30:34;98659.19;;;11.79;100.00
50430;BME280;36359;41.556;-8.418;2022-12-16T01:33:00;98657.31;;;11.58;100.00
50430;BME280;36359;41.556;-8.418;2022-12-16T01:35:26;98658.63;;;11.63;100.00
50430;BME280;36359;41.556;-8.418;2022-12-16T01:37:51;98658.88;;;11.68;100.00
50430;BME280;36359;41.556;-8.418;2022-12-16T01:40:22;98651.16;;;11.99;100.00
50430;BME280;36359;41.556;-8.418;2022-12-16T01:42:49;98659.97;;;12.01;100.00
50430;BME280;36359;41.556;-8.418;2022-12-16T01:45:40;98656.53;;;11.86;100.00
50430;BME280;36359;41.556;-8.418;2022-12-16T01:48:34;98655.28;;;11.89;100.00
50430;BME280;36359;41.556;-8.418;2022-12-16T01:51:15;98651.94;;;11.87;100.00
50430;BME280;36359;41.556;-8.418;2022-12-16T01:53:42;98647.03;;;11.82;100.00
50430;BME280;36359;41.556;-8.418;2022-12-16T01:56:12;98652.41;;;11.69;100.00
50430;BME280;36359;41.556;-8.418;2022-12-16T01:58:41;98650.09;;;11.66;100.00
50430;BME280;36359;41.556;-8.418;2022-12-16T02:01:08;98646.75;;;11.70;100.00
50430;BME280;36359;41.556;-8.418;2022-12-16T02:03:35;98648.69;;;11.76;100.00
50430;BME280;36359;41.556;-8.418;2022-12-16T02:06:03;98646.34;;;11.95;100.00
50430;BME280;36359;41.556;-8.418;2022-12-16T02:08:29;98658.41;;;11.86;100.00
50430;BME280;36359;41.556;-8.418;2022-12-16T02:16:18;98647.56;;;11.92;100.00
50430;BME280;36359;41.556;-8.418;2022-12-16T02:30:04;98659.50;;;11.70;100.00
50430;BME280;36359;41.556;-8.418;2022-12-16T02:35:17;98674.19;;;11.75;100.00
50430;BME280;36359;41.556;-8.418;2022-12-16T02:38:33;98696.97;;;11.74;100.00
50430;BME280;36359;41.556;-8.418;2022-12-16T02:41:04;98713.97;;;11.83;100.00
50430;BME280;36359;41.556;-8.418;2022-12-16T02:46:10;98715.41;;;12.07;100.00
50430;BME280;36359;41.556;-8.418;2022-12-16T02:48:36;98701.31;;;11.97;100.00
50430;BME280;36359;41.556;-8.418;2022-12-16T02:51:02;98700.06;;;11.93;100.00
50430;BME280;36359;41.556;-8.418;2022-12-16T02:53:30;98694.63;;;11.93;100.00
50430;BME280;36359;41.556;-8.418;2022-12-16T03:06:22;98697.78;;;11.75;100.00
50430;BME280;36359;41.556;-8.418;2022-12-16T03:08:54;98693.00;;;11.77;100.00
50430;BME280;36359;41.556;-8.418;2022-12-16T03:11:22;98683.19;;;12.04;100.00
50430;BME280;36359;41.556;-8.418;2022-12-16T03:13:53;98684.72;;;11.85;100.00
50430;BME280;36359;41.556;-8.418;2022-12-16T03:16:23;98684.13;;;12.18;100.00
50430;BME280;36359;41.556;-8.418;2022-12-16T03:18:54;98677.22;;;12.15;100.00
50430;BME280;36359;41.556;-8.418;2022-12-16T03:21:24;98671.88;;;12.00;100.00
50430;BME280;36359;41.556;-8.418;2022-12-16T03:23:57;98682.88;;;11.86;100.00
50430;BME280;36359;41.556;-8.418;2022-12-16T03:26:37;98682.38;;;11.82;100.00
50430;BME280;36359;41.556;-8.418;2022-12-16T03:29:11;98680.44;;;11.76;100.00
50430;BME280;36359;41.556;-8.418;2022-12-16T03:31:51;98685.47;;;11.79;100.00
50430;BME280;36359;41.556;-8.418;2022-12-16T03:34:59;98680.34;;;11.63;100.00
50430;BME280;36359;41.556;-8.418;2022-12-16T03:37:33;98673.31;;;11.68;100.00
50430;BME280;36359;41.556;-8.418;2022-12-16T03:40:04;98668.97;;;11.52;100.00
50430;BME280;36359;41.556;-8.418;2022-12-16T03:42:31;98654.06;;;11.42;100.00
50430;BME280;36359;41.556;-8.418;2022-12-16T03:44:56;98653.72;;;11.51;100.00
50430;BME280;36359;41.556;-8.418;2022-12-16T03:49:55;98644.94;;;11.49;100.00
50430;BME280;36359;41.556;-8.418;2022-12-16T03:52:21;98636.47;;;11.37;100.00
50430;BME280;36359;41.556;-8.418;2022-12-16T03:54:46;98634.59;;;11.38;100.00
50430;BME280;36359;41.556;-8.418;2022-12-16T03:57:12;98640.41;;;11.35;100.00
50430;BME280;36359;41.556;-8.418;2022-12-16T03:59:38;98646.06;;;11.33;100.00
50430;BME280;36359;41.556;-8.418;2022-12-16T04:02:04;98653.88;;;11.43;100.00
50430;BME280;36359;41.556;-8.418;2022-12-16T04:04:29;98664.47;;;11.59;100.00
50430;BME280;36359;41.556;-8.418;2022-12-16T04:06:55;98669.19;;;11.29;100.00
50430;BME280;36359;41.556;-8.418;2022-12-16T04:09:39;98657.75;;;11.34;100.00
50430;BME280;36359;41.556;-8.418;2022-12-16T04:12:06;98661.22;;;11.49;100.00
50430;BME280;36359;41.556;-8.418;2022-12-16T04:14:50;98657.09;;;11.32;100.00
50430;BME280;36359;41.556;-8.418;2022-12-16T04:20:31;98651.28;;;11.35;100.00
50430;BME280;36359;41.556;-8.418;2022-12-16T04:23:17;98644.84;;;11.36;100.00
50430;BME280;36359;41.556;-8.418;2022-12-16T04:26:03;98652.97;;;11.36;100.00
50430;BME280;36359;41.556;-8.418;2022-12-16T04:28:29;98665.78;;;11.70;100.00
50430;BME280;36359;41.556;-8.418;2022-12-16T04:30:55;98667.03;;;11.68;100.00
50430;BME280;36359;41.556;-8.418;2022-12-16T04:33:21;98673.41;;;11.53;100.00
50430;BME280;36359;41.556;-8.418;2022-12-16T04:36:06;98670.81;;;11.45;100.00
50430;BME280;36359;41.556;-8.418;2022-12-16T04:38:51;98678.38;;;11.78;100.00
50430;BME280;36359;41.556;-8.418;2022-12-16T04:41:35;98680.25;;;11.77;100.00
50430;BME280;36359;41.556;-8.418;2022-12-16T04:44:19;98682.88;;;11.64;100.00
50430;BME280;36359;41.556;-8.418;2022-12-16T04:47:04;98678.81;;;11.81;100.00
50430;BME280;36359;41.556;-8.418;2022-12-16T04:49:48;98678.81;;;11.81;100.00
50430;BME280;36359;41.556;-8.418;2022-12-16T04:52:32;98679.66;;;11.82;100.00
50430;BME280;36359;41.556;-8.418;2022-12-16T04:55:17;98672.34;;;11.54;100.00
50430;BME280;36359;41.556;-8.418;2022-12-16T04:58:02;98672.22;;;11.41;100.00
50430;BME280;36359;41.556;-8.418;2022-12-16T05:00:48;98681.84;;;11.44;100.00
50430;BME280;36359;41.556;-8.418;2022-12-16T05:03:32;98662.16;;;11.35;100.00
50430;BME280;36359;41.556;-8.418;2022-12-16T05:06:17;98667.91;;;11.25;100.00
50430;BME280;36359;41.556;-8.418;2022-12-16T05:09:02;98669.47;;;11.13;100.00
50430;BME280;36359;41.556;-8.418;2022-12-16T05:11:48;98671.75;;;11.09;100.00
50430;BME280;36359;41.556;-8.418;2022-12-16T05:14:32;98671.97;;;11.14;100.00
50430;BME280;36359;41.556;-8.418;2022-12-16T05:17:16;98679.09;;;11.16;100.00
50430;BME280;36359;41.556;-8.418;2022-12-16T05:20:01;98680.72;;;11.31;100.00
50430;BME280;36359;41.556;-8.418;2022-12-16T05:22:45;98683.94;;;11.42;100.00
50430;BME280;36359;41.556;-8.418;2022-12-16T05:25:30;98682.44;;;11.18;100.00
50430;BME280;36359;41.556;-8.418;2022-12-16T05:28:14;98678.06;;;11.17;100.00
50430;BME280;36359;41.556;-8.418;2022-12-16T05:30:58;98685.78;;;11.63;100.00
50430;BME280;36359;41.556;-8.418;2022-12-16T05:33:43;98698.16;;;11.44;100.00
50430;BME280;36359;41.556;-8.418;2022-12-16T05:36:27;98705.13;;;11.53;100.00
50430;BME280;36359;41.556;-8.418;2022-12-16T05:39:12;98695.56;;;11.57;100.00
50430;BME280;36359;41.556;-8.418;2022-12-16T05:41:56;98706.50;;;11.42;100.00
50430;BME280;36359;41.556;-8.418;2022-12-16T05:44:40;98718.53;;;11.54;100.00
50430;BME280;36359;41.556;-8.418;2022-12-16T05:47:26;98717.16;;;11.44;100.00
50430;BME280;36359;41.556;-8.418;2022-12-16T05:50:10;98722.97;;;11.41;100.00
50430;BME280;36359;41.556;-8.418;2022-12-16T05:53:06;98717.16;;;11.44;100.00
50430;BME280;36359;41.556;-8.418;2022-12-16T05:55:50;98715.56;;;11.28;100.00
50430;BME280;36359;41.556;-8.418;2022-12-16T05:58:35;98724.13;;;11.53;100.00
50430;BME280;36359;41.556;-8.418;2022-12-16T06:01:19;98732.63;;;11.43;100.00
50430;BME280;36359;41.556;-8.418;2022-12-16T06:04:04;98736.66;;;11.47;100.00
50430;BME280;36359;41.556;-8.418;2022-12-16T06:06:48;98737.81;;;11.59;100.00
50430;BME280;36359;41.556;-8.418;2022-12-16T06:09:32;98744.50;;;11.64;100.00
50430;BME280;36359;41.556;-8.418;2022-12-16T06:12:17;98748.25;;;11.41;100.00
50430;BME280;36359;41.556;-8.418;2022-12-16T06:15:02;98742.97;;;11.33;100.00
50430;BME280;36359;41.556;-8.418;2022-12-16T06:17:47;98743.75;;;11.48;100.00
50430;BME280;36359;41.556;-8.418;2022-12-16T06:20:32;98753.84;;;11.54;100.00
50430;BME280;36359;41.556;-8.418;2022-12-16T06:23:17;98754.03;;;11.31;100.00
50430;BME280;36359;41.556;-8.418;2022-12-16T06:26:02;98760.66;;;11.29;100.00
50430;BME280;36359;41.556;-8.418;2022-12-16T06:28:46;98751.41;;;11.23;100.00
50430;BME280;36359;41.556;-8.418;2022-12-16T06:31:30;98749.44;;;11.32;100.00
50430;BME280;36359;41.556;-8.418;2022-12-16T06:34:14;98750.84;;;11.49;100.00
50430;BME280;36359;41.556;-8.418;2022-12-16T06:36:59;98749.69;;;11.16;100.00
50430;BME280;36359;41.556;-8.418;2022-12-16T06:39:43;98745.75;;;11.18;100.00
50430;BME280;36359;41.556;-8.418;2022-12-16T06:42:28;98755.50;;;11.12;100.00
50430;BME280;36359;41.556;-8.418;2022-12-16T06:45:12;98749.06;;;10.99;100.00
50430;BME280;36359;41.556;-8.418;2022-12-16T06:47:57;98749.97;;;11.06;100.00
50430;BME280;36359;41.556;-8.418;2022-12-16T06:50:41;98757.84;;;11.16;100.00
50430;BME280;36359;41.556;-8.418;2022-12-16T06:53:25;98756.78;;;11.17;100.00
50430;BME280;36359;41.556;-8.418;2022-12-16T06:56:10;98767.88;;;11.36;100.00
50430;BME280;36359;41.556;-8.418;2022-12-16T06:58:54;98767.81;;;11.30;100.00
50430;BME280;36359;41.556;-8.418;2022-12-16T07:01:39;98768.97;;;11.21;100.00
50430;BME280;36359;41.556;-8.418;2022-12-16T07:04:23;98762.09;;;11.46;100.00
50430;BME280;36359;41.556;-8.418;2022-12-16T07:07:08;98766.00;;;11.37;100.00
50430;BME280;36359;41.556;-8.418;2022-12-16T07:09:52;98764.69;;;11.33;100.00
50430;BME280;36359;41.556;-8.418;2022-12-16T07:12:36;98764.44;;;11.28;100.00
50430;BME280;36359;41.556;-8.418;2022-12-16T07:15:21;98758.47;;;11.18;100.00
50430;BME280;36359;41.556;-8.418;2022-12-16T07:18:05;98767.50;;;11.03;100.00
50430;BME280;36359;41.556;-8.418;2022-12-16T07:20:50;98778.41;;;11.25;100.00
50430;BME280;36359;41.556;-8.418;2022-12-16T07:23:37;98776.84;;;11.37;100.00
50430;BME280;36359;41.556;-8.418;2022-12-16T07:26:21;98773.41;;;11.50;100.00
50430;BME280;36359;41.556;-8.418;2022-12-16T07:29:05;98771.22;;;11.60;100.00
50430;BME280;36359;41.556;-8.418;2022-12-16T07:31:50;98777.13;;;11.85;100.00
50430;BME280;36359;41.556;-8.418;2022-12-16T07:34:38;98784.34;;;11.78;100.00
50430;BME280;36359;41.556;-8.418;2022-12-16T07:37:22;98772.91;;;11.82;100.00
50430;BME280;36359;41.556;-8.418;2022-12-16T07:40:07;98770.09;;;12.19;100.00
50430;BME280;36359;41.556;-8.418;2022-12-16T07:42:52;98775.31;;;11.92;100.00
50430;BME280;36359;41.556;-8.418;2022-12-16T07:45:36;98781.00;;;11.97;100.00
50430;BME280;36359;41.556;-8.418;2022-12-16T07:48:21;98789.00;;;11.84;100.00
50430;BME280;36359;41.556;-8.418;2022-12-16T07:51:05;98784.75;;;11.75;100.00
50430;BME280;36359;41.556;-8.418;2022-12-16T07:53:49;98788.28;;;11.75;100.00
50430;BME280;36359;41.556;-8.418;2022-12-16T07:56:34;98787.75;;;12.30;100.00
50430;BME280;36359;41.556;-8.418;2022-12-16T07:59:18;98802.88;;;12.39;100.00
50430;BME280;36359;41.556;-8.418;2022-12-16T08:02:02;98801.53;;;12.63;100.00
50430;BME280;36359;41.556;-8.418;2022-12-16T08:04:47;98802.94;;;12.52;100.00
50430;BME280;36359;41.556;-8.418;2022-12-16T08:07:31;98811.72;;;12.19;100.00
50430;BME280;36359;41.556;-8.418;2022-12-16T08:10:16;98813.34;;;12.42;100.00
50430;BME280;36359;41.556;-8.418;2022-12-16T08:13:02;98818.16;;;12.75;100.00
50430;BME280;36359;41.556;-8.418;2022-12-16T08:15:47;98821.00;;;13.56;100.00
50430;BME280;36359;41.556;-8.418;2022-12-16T08:18:31;98832.75;;;12.67;100.00
50430;BME280;36359;41.556;-8.418;2022-12-16T08:21:16;98829.38;;;12.30;100.00
50430;BME280;36359;41.556;-8.418;2022-12-16T08:24:00;98829.53;;;12.00;100.00
50430;BME280;36359;41.556;-8.418;2022-12-16T08:26:46;98846.22;;;12.19;100.00
50430;BME280;36359;41.556;-8.418;2022-12-16T08:29:30;98848.31;;;11.95;100.00
50430;BME280;36359;41.556;-8.418;2022-12-16T08:32:15;98851.94;;;12.93;100.00
50430;BME280;36359;41.556;-8.418;2022-12-16T08:34:59;98859.16;;;13.56;100.00
50430;BME280;36359;41.556;-8.418;2022-12-16T08:37:45;98855.53;;;14.76;99.83
50430;BME280;36359;41.556;-8.418;2022-12-16T08:40:29;98869.69;;;15.18;96.24
50430;BME280;36359;41.556;-8.418;2022-12-16T08:43:14;98869.69;;;15.70;92.41
50430;BME280;36359;41.556;-8.418;2022-12-16T08:45:58;98874.22;;;15.38;91.21
50430;BME280;36359;41.556;-8.418;2022-12-16T08:48:42;98862.81;;;14.03;96.98
50430;BME280;36359;41.556;-8.418;2022-12-16T08:51:27;98873.31;;;13.93;97.04
50430;BME280;36359;41.556;-8.418;2022-12-16T08:54:12;98880.44;;;13.80;100.00
50430;BME280;36359;41.556;-8.418;2022-12-16T08:56:57;98876.63;;;13.68;96.09
50430;BME280;36359;41.556;-8.418;2022-12-16T08:59:41;98878.84;;;13.03;100.00
50430;BME280;36359;41.556;-8.418;2022-12-16T09:02:26;98888.22;;;12.66;100.00
50430;BME280;36359;41.556;-8.418;2022-12-16T09:05:11;98888.06;;;12.74;100.00
50430;BME280;36359;41.556;-8.418;2022-12-16T09:08:03;98881.69;;;12.88;100.00
50430;BME280;36359;41.556;-8.418;2022-12-16T09:10:48;98896.44;;;12.44;100.00
50430;BME280;36359;41.556;-8.418;2022-12-16T09:13:33;98911.81;;;12.87;100.00
50430;BME280;36359;41.556;-8.418;2022-12-16T09:16:18;98917.63;;;13.12;100.00
50430;BME280;36359;41.556;-8.418;2022-12-16T09:19:03;98926.50;;;12.64;100.00
50430;BME280;36359;41.556;-8.418;2022-12-16T09:21:48;98926.47;;;12.58;100.00
50430;BME280;36359;41.556;-8.418;2022-12-16T09:24:33;98946.03;;;12.25;100.00
50430;BME280;36359;41.556;-8.418;2022-12-16T09:27:17;98948.81;;;13.44;100.00
50430;BME280;36359;41.556;-8.418;2022-12-16T09:30:01;98956.78;;;13.39;100.00
50430;BME280;36359;41.556;-8.418;2022-12-16T09:32:45;98968.19;;;14.17;100.00
50430;BME280;36359;41.556;-8.418;2022-12-16T09:35:30;98979.09;;;14.17;100.00
50430;BME280;36359;41.556;-8.418;2022-12-16T09:38:15;98990.88;;;14.24;100.00
50430;BME280;36359;41.556;-8.418;2022-12-16T09:41:27;98993.81;;;15.62;96.49
50430;BME280;36359;41.556;-8.418;2022-12-16T09:47:28;99010.31;;;15.09;96.85
50430;BME280;36359;41.556;-8.418;2022-12-16T09:50:17;99020.59;;;16.12;94.98
50430;BME280;36359;41.556;-8.418;2022-12-16T09:53:04;99021.22;;;16.84;90.07
50430;BME280;36359;41.556;-8.418;2022-12-16T09:55:50;99029.66;;;17.08;87.62
50430;BME280;36359;41.556;-8.418;2022-12-16T09:58:40;99038.78;;;17.27;86.28
50430;BME280;36359;41.556;-8.418;2022-12-16T10:01:34;99040.38;;;17.34;84.67
50430;BME280;36359;41.556;-8.418;2022-12-16T10:04:39;99056.97;;;17.21;85.16
50430;BME280;36359;41.556;-8.418;2022-12-16T10:07:29;99047.88;;;16.95;85.12
50430;BME280;36359;41.556;-8.418;2022-12-16T10:13:49;99059.56;;;16.46;82.30
50430;BME280;36359;41.556;-8.418;2022-12-16T10:25:53;99087.41;;;14.98;91.01
50430;BME280;36359;41.556;-8.418;2022-12-16T10:31:31;99093.94;;;15.37;92.04
50430;BME280;36359;41.556;-8.418;2022-12-16T10:34:19;99090.94;;;14.79;89.85
50430;BME280;36359;41.556;-8.418;2022-12-16T10:37:04;99096.22;;;14.87;93.43
50430;BME280;36359;41.556;-8.418;2022-12-16T10:40:12;99097.28;;;15.06;94.84
50430;BME280;36359;41.556;-8.418;2022-12-16T10:43:02;99115.19;;;15.41;86.91
50430;BME280;36359;41.556;-8.418;2022-12-16T10:45:55;99102.31;;;14.95;89.78
50430;BME280;36359;41.556;-8.418;2022-12-16T10:48:41;99090.94;;;14.79;91.11
50430;BME280;36359;41.556;-8.418;2022-12-16T10:51:27;99103.94;;;14.70;90.70
50430;BME280;36359;41.556;-8.418;2022-12-16T11:00:07;99093.72;;;14.98;88.39
50430;BME280;36359;41.556;-8.418;2022-12-16T11:02:52;99095.81;;;15.03;89.44
50430;BME280;36359;41.556;-8.418;2022-12-16T11:05:37;99090.09;;;14.85;85.30
50430;BME280;36359;41.556;-8.418;2022-12-16T11:08:28;99078.78;;;15.14;89.46
50430;BME280;36359;41.556;-8.418;2022-12-16T11:11:29;99083.00;;;15.17;90.57
50430;BME280;36359;41.556;-8.418;2022-12-16T11:14:23;99064.69;;;14.84;83.52
50430;BME280;36359;41.556;-8.418;2022-12-16T11:17:27;99064.09;;;15.15;89.63
50430;BME280;36359;41.556;-8.418;2022-12-16T11:22:48;99066.53;;;14.57;83.36
50430;BME280;36359;41.556;-8.418;2022-12-16T11:29:13;99066.97;;;14.61;84.08
50430;BME280;36359;41.556;-8.418;2022-12-16T11:32:12;99072.66;;;14.72;84.54
50430;BME280;36359;41.556;-8.418;2022-12-16T11:35:02;99077.28;;;14.79;81.25
50430;BME280;36359;41.556;-8.418;2022-12-16T11:37:49;99079.63;;;15.08;88.79
50430;BME280;36359;41.556;-8.418;2022-12-16T11:40:36;99076.69;;;15.16;80.90
50430;BME280;36359;41.556;-8.418;2022-12-16T11:43:23;99084.66;;;15.11;79.86
50430;BME280;36359;41.556;-8.418;2022-12-16T11:46:13;99086.38;;;15.12;79.69
50430;BME280;36359;41.556;-8.418;2022-12-16T11:49:01;99096.03;;;15.21;80.21
50430;BME280;36359;41.556;-8.418;2022-12-16T11:51:56;99089.66;;;15.94;88.51
50430;BME280;36359;41.556;-8.418;2022-12-16T11:55:15;99094.31;;;15.87;75.06
50430;BME280;36359;41.556;-8.418;2022-12-16T12:03:58;99083.19;;;15.62;82.24
50430;BME280;36359;41.556;-8.418;2022-12-16T12:10:19;99072.03;;;15.83;73.30
50430;BME280;36359;41.556;-8.418;2022-12-16T12:22:36;99072.91;;;15.51;79.52
50430;BME280;36359;41.556;-8.418;2022-12-16T12:25:41;99071.59;;;15.86;74.39
50430;BME280;36359;41.556;-8.418;2022-12-16T12:28:48;99068.50;;;15.36;74.36
50430;BME280;36359;41.556;-8.418;2022-12-16T12:31:59;99069.97;;;15.39;79.46
50430;BME280;36359;41.556;-8.418;2022-12-16T12:37:57;99087.13;;;15.93;79.19
50430;BME280;36359;41.556;-8.418;2022-12-16T12:40:49;99084.25;;;15.41;72.82
50430;BME280;36359;41.556;-8.418;2022-12-16T12:46:55;99105.06;;;15.29;73.50
50430;BME280;36359;41.556;-8.418;2022-12-16T12:55:49;99110.13;;;15.45;73.22
50430;BME280;36359;41.556;-8.418;2022-12-16T12:58:41;99117.91;;;15.48;74.36
50430;BME280;36359;41.556;-8.418;2022-12-16T13:01:30;99120.84;;;15.40;72.63
50430;BME280;36359;41.556;-8.418;2022-12-16T13:04:18;99119.56;;;15.56;74.22
50430;BME280;36359;41.556;-8.418;2022-12-16T13:07:04;99134.50;;;15.40;74.23
50430;BME280;36359;41.556;-8.418;2022-12-16T13:13:34;99141.84;;;15.19;75.46
50430;BME280;36359;41.556;-8.418;2022-12-16T13:22:33;99148.78;;;15.15;73.07
50430;BME280;36359;41.556;-8.418;2022-12-16T13:28:32;99157.41;;;15.26;74.86
50430;BME280;36359;41.556;-8.418;2022-12-16T13:31:17;99154.47;;;15.40;73.88
50430;BME280;36359;41.556;-8.418;2022-12-16T13:34:06;99157.00;;;15.29;74.28
50430;BME280;36359;41.556;-8.418;2022-12-16T13:36:55;99153.84;;;15.32;73.22
50430;BME280;36359;41.556;-8.418;2022-12-16T13:39:42;99159.53;;;15.70;75.16
50430;BME280;36359;41.556;-8.418;2022-12-16T13:45:41;99173.63;;;16.00;73.31
50430;BME280;36359;41.556;-8.418;2022-12-16T13:48:35;99169.19;;;15.53;72.94
50430;BME280;36359;41.556;-8.418;2022-12-16T13:53:50;99172.59;;;15.68;76.73
50430;BME280;36359;41.556;-8.418;2022-12-16T13:56:44;99173.84;;;15.79;75.72
50430;BME280;36359;41.556;-8.418;2022-12-16T13:59:31;99184.16;;;15.77;77.90
50430;BME280;36359;41.556;-8.418;2022-12-16T14:02:39;99188.56;;;15.78;76.64
50430;BME280;36359;41.556;-8.418;2022-12-16T14:05:27;99198.47;;;15.79;76.90
50430;BME280;36359;41.556;-8.418;2022-12-16T14:08:17;99194.84;;;15.58;74.06
50430;BME280;36359;41.556;-8.418;2022-12-16T14:11:04;99194.06;;;15.78;76.55
50430;BME280;36359;41.556;-8.418;2022-12-16T14:17:01;99208.75;;;15.90;75.59
50430;BME280;36359;41.556;-8.418;2022-12-16T14:20:09;99222.66;;;15.95;75.49
50430;BME280;36359;41.556;-8.418;2022-12-16T14:25:56;99219.91;;;15.95;78.28
50430;BME280;36359;41.556;-8.418;2022-12-16T14:28:44;99224.50;;;16.28;80.49
50430;BME280;36359;41.556;-8.418;2022-12-16T14:31:38;99231.66;;;16.22;77.83
50430;BME280;36359;41.556;-8.418;2022-12-16T14:34:32;99233.59;;;15.95;75.96
50430;BME280;36359;41.556;-8.418;2022-12-16T14:37:28;99231.47;;;16.10;78.68
50430;BME280;36359;41.556;-8.418;2022-12-16T14:43:13;99243.66;;;16.15;81.18
50430;BME280;36359;41.556;-8.418;2022-12-16T14:45:58;99245.13;;;16.30;78.22
50430;BME280;36359;41.556;-8.418;2022-12-16T14:48:45;99253.53;;;16.29;75.89
50430;BME280;36359;41.556;-8.418;2022-12-16T14:51:34;99261.34;;;16.19;75.05
50430;BME280;36359;41.556;-8.418;2022-12-16T14:57:18;99267.66;;;15.99;76.85
50430;BME280;36359;41.556;-8.418;2022-12-16T15:03:28;99260.75;;;16.03;76.75
50430;BME280;36359;41.556;-8.418;2022-12-16T15:06:09;99276.50;;;16.15;79.73
50430;BME280;36359;41.556;-8.418;2022-12-16T15:08:57;99269.78;;;16.04;79.10
50430;BME280;36359;41.556;-8.418;2022-12-16T15:11:46;99268.28;;;16.28;84.84
50430;BME280;36359;41.556;-8.418;2022-12-16T15:14:34;99277.13;;;16.37;82.67
50430;BME280;36359;41.556;-8.418;2022-12-16T15:17:22;99277.09;;;16.43;79.03
50430;BME280;36359;41.556;-8.418;2022-12-16T15:20:35;99287.03;;;16.18;75.99
50430;BME280;36359;41.556;-8.418;2022-12-16T15:23:29;99287.03;;;15.91;77.13
50430;BME280;36359;41.556;-8.418;2022-12-16T15:26:17;99292.91;;;15.81;78.00
50430;BME280;36359;41.556;-8.418;2022-12-16T15:29:03;99310.19;;;15.88;79.17
50430;BME280;36359;41.556;-8.418;2022-12-16T15:31:47;99310.19;;;15.95;79.38
50430;BME280;36359;41.556;-8.418;2022-12-16T15:34:47;99311.44;;;15.93;82.91
50430;BME280;36359;41.556;-8.418;2022-12-16T15:37:40;99315.44;;;15.77;78.87
50430;BME280;36359;41.556;-8.418;2022-12-16T15:40:30;99317.13;;;15.71;79.61
50430;BME280;36359;41.556;-8.418;2022-12-16T15:43:26;99317.75;;;15.93;81.91
50430;BME280;36359;41.556;-8.418;2022-12-16T15:46:23;99320.25;;;15.68;79.87
50430;BME280;36359;41.556;-8.418;2022-12-16T15:49:33;99327.13;;;15.57;80.22
50430;BME280;36359;41.556;-8.418;2022-12-16T15:52:22;99331.22;;;15.88;84.25
50430;BME280;36359;41.556;-8.418;2022-12-16T15:58:27;99339.97;;;15.63;80.33
50430;BME280;36359;41.556;-8.418;2022-12-16T16:01:14;99332.81;;;15.56;83.62
50430;BME280;36359;41.556;-8.418;2022-12-16T16:03:59;99333.00;;;15.48;85.07
50430;BME280;36359;41.556;-8.418;2022-12-16T16:06:49;99347.28;;;15.36;85.51
50430;BME280;36359;41.556;-8.418;2022-12-16T16:09:35;99343.72;;;15.42;82.91
50430;BME280;36359;41.556;-8.418;2022-12-16T16:12:21;99346.19;;;15.31;81.91
50430;BME280;36359;41.556;-8.418;2022-12-16T16:15:08;99352.75;;;15.50;82.62
50430;BME280;36359;41.556;-8.418;2022-12-16T16:17:58;99350.84;;;15.43;81.68